Time;durP1;ratioP1;P1;durP2;ratioP2;P2;SDS_P1;SDS_P2;PMS_P1;PMS_P2;Temp;Humidity;BMP_temperature;BMP_pressure;BME280_temperature;BME280_humidity;BME280_pressure;Samples;Min_cycle;Max_cycle;Signal;HPM_P1;HPM_P2
2022/05/14 00:05:05;;;;;;;7.83;3.83;;;;;;;;;;4423947;80;28486;-79
2022/05/14 00:17:25;;;;;;;5.55;3.50;;;;;;;;;;4424022;80;28568;-79
2022/05/14 00:23:26;;;;;;;5.65;3.75;;;;;;;;;;4437073;79;28496;-79
2022/05/14 00:29:27;;;;;;;6.22;4.10;;;;;;;;;;4438825;80;28567;-79
2022/05/14 00:35:28;;;;;;;7.12;3.95;;;;;;;;;;4435891;80;28510;-79
2022/05/14 00:41:29;;;;;;;8.43;3.87;;;;;;;;;;4434900;80;28485;-80
2022/05/14 00:47:32;;;;;;;7.40;3.90;;;;;;;;;;4438930;80;28524;-79
2022/05/14 00:53:34;;;;;;;8.53;3.75;;;;;;;;;;4439924;80;28505;-79
2022/05/14 00:59:36;;;;;;;8.30;3.70;;;;;;;;;;4417780;80;28501;-79
2022/05/14 01:05:38;;;;;;;6.97;3.87;;;;;;;;;;4396894;79;28500;-79
2022/05/14 01:11:39;;;;;;;6.15;4.17;;;;;;;;;;4468645;79;28527;-79
2022/05/14 01:17:41;;;;;;;8.88;3.80;;;;;;;;;;4383421;81;28604;-79
2022/05/14 01:30:09;;;;;;;4.85;3.95;;;;;;;;;;4375768;81;28557;-80
2022/05/14 01:36:10;;;;;;;6.37;4.08;;;;;;;;;;4417695;80;28513;-81
2022/05/14 01:42:12;;;;;;;10.10;4.60;;;;;;;;;;4410639;80;28461;-81
2022/05/14 01:48:13;;;;;;;6.33;3.62;;;;;;;;;;4393459;80;28486;-80
2022/05/14 01:54:15;;;;;;;5.15;3.50;;;;;;;;;;4405957;80;28498;-79
2022/05/14 02:00:16;;;;;;;7.90;3.70;;;;;;;;;;4313552;82;28456;-81
2022/05/14 02:06:20;;;;;;;6.78;4.05;;;;;;;;;;4363261;81;28508;-80
2022/05/14 02:12:21;;;;;;;6.30;4.17;;;;;;;;;;4360707;82;28526;-81
2022/05/14 02:18:22;;;;;;;7.85;4.10;;;;;;;;;;4360922;82;28952;-81
2022/05/14 02:24:23;;;;;;;8.68;4.92;;;;;;;;;;4360378;80;28468;-81
2022/05/14 02:30:25;;;;;;;6.03;4.08;;;;;;;;;;4360765;82;28526;-80
2022/05/14 02:36:26;;;;;;;10.13;4.60;;;;;;;;;;4361169;82;28477;-79
2022/05/14 02:42:27;;;;;;;7.72;4.37;;;;;;;;;;4361371;82;28477;-79
2022/05/14 02:48:29;;;;;;;8.93;5.45;;;;;;;;;;4360622;82;28545;-79
2022/05/14 02:54:30;;;;;;;8.28;5.03;;;;;;;;;;4360610;82;28553;-80
2022/05/14 03:00:31;;;;;;;9.08;5.10;;;;;;;;;;4339381;82;28488;-79
2022/05/14 03:06:33;;;;;;;9.93;5.80;;;;;;;;;;4360591;81;28901;-79
2022/05/14 03:12:34;;;;;;;7.15;4.83;;;;;;;;;;4369613;81;28519;-80
2022/05/14 03:18:35;;;;;;;9.38;5.15;;;;;;;;;;4373011;78;28529;-80
2022/05/14 03:24:37;;;;;;;8.30;4.87;;;;;;;;;;4374850;79;28470;-78
2022/05/14 03:30:38;;;;;;;9.23;5.28;;;;;;;;;;4333212;79;28536;-77
2022/05/14 03:36:39;;;;;;;9.60;5.58;;;;;;;;;;4428760;80;28530;-79
2022/05/14 03:42:42;;;;;;;9.63;5.75;;;;;;;;;;4373154;80;28528;-79
2022/05/14 03:48:44;;;;;;;11.55;6.60;;;;;;;;;;4372045;81;28489;-78
2022/05/14 03:54:45;;;;;;;12.85;6.20;;;;;;;;;;4336516;81;28525;-80
2022/05/14 04:00:47;;;;;;;10.30;7.17;;;;;;;;;;4277894;83;28459;-79
2022/05/14 04:06:48;;;;;;;11.22;6.30;;;;;;;;;;4316955;82;28587;-79
2022/05/14 04:12:50;;;;;;;11.30;6.08;;;;;;;;;;4321481;81;28505;-79
2022/05/14 04:18:52;;;;;;;11.12;6.45;;;;;;;;;;4320627;82;28512;-80
2022/05/14 04:24:53;;;;;;;10.53;5.97;;;;;;;;;;4323702;82;28452;-79
2022/05/14 04:30:54;;;;;;;11.28;6.10;;;;;;;;;;4358143;82;28540;-80
2022/05/14 04:36:56;;;;;;;9.18;5.53;;;;;;;;;;4394022;81;28895;-79
2022/05/14 04:42:57;;;;;;;13.72;6.72;;;;;;;;;;4371748;81;28508;-79
2022/05/14 04:48:58;;;;;;;12.88;6.83;;;;;;;;;;4353205;81;28514;-80
2022/05/14 04:54:59;;;;;;;9.93;6.10;;;;;;;;;;4335560;80;28512;-81
2022/05/14 05:01:01;;;;;;;13.80;6.15;;;;;;;;;;4347203;80;28588;-80
2022/05/14 05:07:02;;;;;;;10.05;5.67;;;;;;;;;;4340571;80;28539;-81
2022/05/14 05:13:06;;;;;;;8.58;4.97;;;;;;;;;;4356869;80;28500;-79
2022/05/14 05:19:06;;;;;;;8.70;4.92;;;;;;;;;;4395450;79;28504;-80
2022/05/14 05:25:09;;;;;;;10.63;5.12;;;;;;;;;;4403891;79;28541;-79
2022/05/14 05:31:10;;;;;;;8.55;4.95;;;;;;;;;;4355156;80;28494;-79
2022/05/14 05:37:10;;;;;;;9.45;4.40;;;;;;;;;;4317344;80;28522;-82
2022/05/14 05:43:12;;;;;;;8.98;4.70;;;;;;;;;;4392165;78;28458;-80
2022/05/14 05:49:15;;;;;;;11.03;5.08;;;;;;;;;;4322889;80;28545;-79
2022/05/14 06:01:35;;;;;;;12.33;5.80;;;;;;;;;;4320197;81;28565;-77
2022/05/14 06:07:42;;;;;;;11.20;4.87;;;;;;;;;;4321511;80;28542;-78
2022/05/14 06:13:42;;;;;;;7.17;4.05;;;;;;;;;;4313745;80;28564;-77
2022/05/14 06:19:46;;;;;;;8.53;4.00;;;;;;;;;;4338901;80;28557;-77
2022/05/14 06:25:47;;;;;;;5.67;3.22;;;;;;;;;;4326663;80;28537;-78
2022/05/14 06:31:48;;;;;;;4.85;3.22;;;;;;;;;;4328599;80;28530;-76
2022/05/14 06:37:49;;;;;;;5.97;3.15;;;;;;;;;;4337051;80;28473;-78
2022/05/14 06:43:50;;;;;;;5.45;3.10;;;;;;;;;;4307058;80;28518;-79
2022/05/14 06:49:51;;;;;;;6.55;2.50;;;;;;;;;;4326327;82;28516;-81
2022/05/14 06:55:53;;;;;;;5.80;3.00;;;;;;;;;;4330111;80;28562;-81
2022/05/14 07:01:54;;;;;;;8.80;3.17;;;;;;;;;;4337595;80;28933;-80
2022/05/14 07:07:55;;;;;;;7.50;3.10;;;;;;;;;;4322298;80;28580;-80
2022/05/14 07:13:57;;;;;;;7.35;2.90;;;;;;;;;;4317389;80;28556;-81
2022/05/14 07:20:01;;;;;;;7.67;3.02;;;;;;;;;;4309251;81;28662;-79
2022/05/14 07:26:06;;;;;;;6.22;2.80;;;;;;;;;;4274060;80;28528;-78
2022/05/14 07:32:08;;;;;;;8.93;2.95;;;;;;;;;;4317767;80;28478;-79
2022/05/14 07:38:09;;;;;;;4.53;2.92;;;;;;;;;;4295505;80;28492;-82
2022/05/14 07:44:11;;;;;;;7.15;3.42;;;;;;;;;;4300893;80;28526;-81
2022/05/14 07:50:13;;;;;;;6.53;3.08;;;;;;;;;;4314850;80;28502;-80
2022/05/14 07:56:14;;;;;;;7.22;3.60;;;;;;;;;;4319118;80;28599;-79
2022/05/14 08:02:31;;;;;;;6.22;3.00;;;;;;;;;;4295514;80;28450;-79
2022/05/14 08:08:31;;;;;;;6.17;2.70;;;;;;;;;;4298155;80;28534;-79
2022/05/14 08:14:33;;;;;;;5.28;2.60;;;;;;;;;;4317965;80;28530;-79
2022/05/14 08:20:35;;;;;;;5.35;2.80;;;;;;;;;;4306626;80;28533;-79
2022/05/14 08:26:36;;;;;;;5.95;3.02;;;;;;;;;;4317902;81;28580;-79
2022/05/14 08:32:36;;;;;;;4.05;2.87;;;;;;;;;;4292879;80;28541;-79
2022/05/14 08:38:37;;;;;;;9.20;3.90;;;;;;;;;;4305958;80;28527;-79
2022/05/14 08:44:40;;;;;;;4.20;2.62;;;;;;;;;;4331908;81;28560;-79
2022/05/14 08:50:42;;;;;;;6.55;3.00;;;;;;;;;;4288033;80;28508;-79
2022/05/14 08:56:52;;;;;;;6.45;2.47;;;;;;;;;;4302726;80;28496;-79
2022/05/14 09:02:54;;;;;;;6.67;2.75;;;;;;;;;;4321202;80;28486;-78
2022/05/14 09:08:58;;;;;;;5.92;3.05;;;;;;;;;;4343044;80;28513;-79
2022/05/14 09:15:01;;;;;;;5.67;3.22;;;;;;;;;;4341698;80;28520;-80
2022/05/14 09:21:04;;;;;;;9.43;3.42;;;;;;;;;;4304215;81;28507;-80
2022/05/14 09:27:09;;;;;;;5.17;2.45;;;;;;;;;;4315435;80;28494;-78
2022/05/14 09:33:12;;;;;;;4.60;2.58;;;;;;;;;;4309017;80;28511;-81
2022/05/14 09:39:17;;;;;;;3.52;1.90;;;;;;;;;;4335120;80;28535;-79
2022/05/14 09:45:21;;;;;;;3.90;2.25;;;;;;;;;;4301368;80;28449;-80
2022/05/14 09:51:30;;;;;;;6.40;2.20;;;;;;;;;;4315924;80;28524;-79
2022/05/14 09:57:49;;;;;;;6.33;2.17;;;;;;;;;;4322077;80;28467;-80
2022/05/14 10:04:01;;;;;;;6.42;1.80;;;;;;;;;;4336094;80;28595;-79
2022/05/14 10:10:13;;;;;;;5.08;2.05;;;;;;;;;;4288828;80;28502;-79
2022/05/14 10:16:16;;;;;;;3.58;2.02;;;;;;;;;;4317643;80;28501;-79
2022/05/14 10:22:19;;;;;;;5.60;2.08;;;;;;;;;;4258201;80;28594;-79
2022/05/14 10:28:34;;;;;;;3.72;1.90;;;;;;;;;;4297930;80;28553;-79
2022/05/14 10:34:36;;;;;;;3.25;2.30;;;;;;;;;;4320646;80;28498;-79
2022/05/14 10:40:42;;;;;;;6.50;2.75;;;;;;;;;;4296340;80;28478;-79
2022/05/14 10:46:43;;;;;;;7.53;2.63;;;;;;;;;;4321681;80;28530;-82
2022/05/14 10:52:46;;;;;;;5.53;2.55;;;;;;;;;;4331515;80;28514;-82
2022/05/14 10:58:55;;;;;;;7.45;2.85;;;;;;;;;;4313298;80;28556;-81
2022/05/14 11:04:58;;;;;;;6.03;2.65;;;;;;;;;;4314736;80;28467;-80
2022/05/14 11:11:07;;;;;;;5.47;2.40;;;;;;;;;;4318681;80;28486;-83
2022/05/14 11:17:28;;;;;;;6.47;2.33;;;;;;;;;;4320860;80;28537;-80
2022/05/14 11:23:29;;;;;;;5.90;2.10;;;;;;;;;;4324150;80;28533;-78
2022/05/14 11:29:32;;;;;;;4.00;2.05;;;;;;;;;;4318175;80;28524;-78
2022/05/14 11:35:38;;;;;;;4.92;2.30;;;;;;;;;;4327554;80;28524;-80
2022/05/14 11:41:41;;;;;;;5.03;2.15;;;;;;;;;;4296852;80;28551;-79
2022/05/14 11:47:56;;;;;;;4.95;1.67;;;;;;;;;;4304651;80;28523;-79
2022/05/14 11:54:05;;;;;;;4.60;1.70;;;;;;;;;;4300941;80;28546;-80
2022/05/14 12:00:10;;;;;;;4.45;1.40;;;;;;;;;;4288544;80;28541;-81
2022/05/14 12:06:41;;;;;;;7.03;1.70;;;;;;;;;;4326730;80;28457;-78
2022/05/14 12:12:44;;;;;;;2.67;1.35;;;;;;;;;;4434432;79;28513;-79
2022/05/14 12:18:44;;;;;;;4.23;1.60;;;;;;;;;;4431398;79;28539;-78
2022/05/14 12:24:56;;;;;;;5.17;1.98;;;;;;;;;;4351571;80;28533;-81
2022/05/14 12:37:30;;;;;;;4.05;1.47;;;;;;;;;;4343305;80;28652;-77
2022/05/14 12:43:31;;;;;;;6.80;1.77;;;;;;;;;;4336306;80;28565;-80
2022/05/14 12:49:34;;;;;;;4.70;1.60;;;;;;;;;;4398416;79;28493;-78
2022/05/14 12:55:36;;;;;;;3.77;1.57;;;;;;;;;;4402413;79;28510;-78
2022/05/14 13:01:37;;;;;;;4.50;1.50;;;;;;;;;;4398252;79;28546;-78
2022/05/14 13:07:43;;;;;;;4.17;1.75;;;;;;;;;;4399231;79;28554;-83
2022/05/14 13:13:49;;;;;;;4.57;1.50;;;;;;;;;;4399444;79;28519;-80
2022/05/14 13:19:52;;;;;;;3.37;1.45;;;;;;;;;;4399657;79;28602;-82
2022/05/14 13:26:01;;;;;;;3.92;1.40;;;;;;;;;;4420733;79;28497;-80
2022/05/14 13:32:12;;;;;;;3.33;1.62;;;;;;;;;;4376486;79;28545;-82
2022/05/14 13:38:13;;;;;;;5.12;1.60;;;;;;;;;;4374648;79;28482;-78
2022/05/14 13:44:15;;;;;;;7.12;1.47;;;;;;;;;;4380620;79;28532;-78
2022/05/14 13:50:27;;;;;;;7.28;1.65;;;;;;;;;;4409562;79;28533;-76
2022/05/14 13:56:29;;;;;;;5.92;1.90;;;;;;;;;;4398980;80;28567;-75
2022/05/14 14:02:30;;;;;;;4.90;1.77;;;;;;;;;;4366783;79;28490;-78
2022/05/14 14:08:31;;;;;;;4.47;1.70;;;;;;;;;;4399079;79;28571;-78
2022/05/14 14:14:32;;;;;;;6.45;1.95;;;;;;;;;;4382280;79;28525;-77
2022/05/14 14:20:37;;;;;;;2.58;1.72;;;;;;;;;;4346968;79;28547;-77
2022/05/14 14:26:38;;;;;;;4.40;1.90;;;;;;;;;;4335087;79;28540;-75
2022/05/14 14:32:39;;;;;;;3.62;2.10;;;;;;;;;;4367202;79;28543;-76
2022/05/14 14:38:40;;;;;;;3.85;1.80;;;;;;;;;;4352582;80;28543;-75
2022/05/14 14:44:41;;;;;;;4.05;2.02;;;;;;;;;;4372851;79;28519;-76
2022/05/14 14:50:42;;;;;;;4.47;2.35;;;;;;;;;;4375426;80;28557;-79
2022/05/14 14:56:43;;;;;;;3.83;2.22;;;;;;;;;;4334906;80;28683;-78
2022/05/14 15:02:49;;;;;;;5.35;2.27;;;;;;;;;;4322706;80;28500;-80
2022/05/14 15:08:50;;;;;;;4.80;2.13;;;;;;;;;;4377098;81;28510;-81
2022/05/14 15:14:51;;;;;;;3.72;2.22;;;;;;;;;;4386384;79;28544;-79
2022/05/14 15:20:52;;;;;;;4.60;2.10;;;;;;;;;;4413978;79;28454;-79
2022/05/14 15:26:54;;;;;;;4.30;2.12;;;;;;;;;;4341303;80;28512;-81
2022/05/14 15:32:54;;;;;;;5.15;2.40;;;;;;;;;;4326164;80;28496;-80
2022/05/14 15:38:55;;;;;;;6.20;2.50;;;;;;;;;;4421075;79;28513;-80
2022/05/14 15:44:58;;;;;;;5.50;2.40;;;;;;;;;;4410199;79;28535;-79
2022/05/14 15:51:07;;;;;;;5.62;2.58;;;;;;;;;;4392729;79;28473;-79
2022/05/14 15:57:08;;;;;;;6.05;2.58;;;;;;;;;;4421911;79;28499;-78
2022/05/14 16:03:09;;;;;;;7.05;3.25;;;;;;;;;;4424748;79;28543;-78
2022/05/14 16:09:13;;;;;;;5.97;2.40;;;;;;;;;;4418484;79;28482;-81
2022/05/14 16:21:34;;;;;;;4.53;2.08;;;;;;;;;;4351696;79;28506;-80
2022/05/14 16:27:35;;;;;;;5.10;2.60;;;;;;;;;;4257722;81;28542;-79
2022/05/14 16:33:36;;;;;;;6.97;2.67;;;;;;;;;;4415942;79;28536;-81
2022/05/14 16:39:37;;;;;;;3.65;2.47;;;;;;;;;;4395395;79;28513;-82
2022/05/14 16:45:38;;;;;;;7.35;2.60;;;;;;;;;;4323910;80;28534;-82
2022/05/14 16:51:39;;;;;;;4.75;2.60;;;;;;;;;;4297853;80;28487;-78
2022/05/14 16:57:40;;;;;;;4.15;2.85;;;;;;;;;;4351884;79;28529;-79
2022/05/14 17:03:42;;;;;;;4.08;2.25;;;;;;;;;;4359676;80;28518;-78
2022/05/14 17:09:43;;;;;;;5.65;2.62;;;;;;;;;;4343140;80;28568;-77
2022/05/14 17:15:45;;;;;;;7.92;2.77;;;;;;;;;;4330523;80;28539;-78
2022/05/14 17:21:46;;;;;;;9.78;3.05;;;;;;;;;;4333598;80;28542;-77
2022/05/14 17:27:47;;;;;;;3.02;2.33;;;;;;;;;;4316466;80;28524;-80
2022/05/14 17:33:48;;;;;;;5.70;2.60;;;;;;;;;;4301623;80;28516;-77
2022/05/14 17:39:50;;;;;;;8.73;3.02;;;;;;;;;;4328811;80;28490;-75
2022/05/14 17:45:53;;;;;;;6.97;3.17;;;;;;;;;;4335595;80;28532;-75
2022/05/14 17:51:55;;;;;;;9.83;3.12;;;;;;;;;;4333443;80;28518;-76
2022/05/14 17:57:57;;;;;;;7.70;3.45;;;;;;;;;;4318940;80;28520;-76
2022/05/14 18:04:03;;;;;;;5.97;3.42;;;;;;;;;;4341737;80;28434;-76
2022/05/14 18:10:04;;;;;;;8.28;3.52;;;;;;;;;;4318392;79;28896;-75
2022/05/14 18:16:05;;;;;;;8.20;3.95;;;;;;;;;;4332353;80;28465;-75
2022/05/14 18:22:07;;;;;;;7.83;3.90;;;;;;;;;;4334819;81;28512;-76
2022/05/14 18:28:09;;;;;;;8.35;3.55;;;;;;;;;;4352369;80;28506;-75
2022/05/14 18:34:12;;;;;;;9.93;4.05;;;;;;;;;;4307425;80;28509;-75
2022/05/14 18:40:15;;;;;;;8.40;3.65;;;;;;;;;;4332653;81;28490;-76
2022/05/14 18:46:16;;;;;;;7.60;3.65;;;;;;;;;;4333207;81;28502;-76
2022/05/14 18:52:17;;;;;;;8.75;4.42;;;;;;;;;;4303610;80;28486;-75
2022/05/14 18:58:18;;;;;;;7.45;3.45;;;;;;;;;;4309547;80;28566;-77
2022/05/14 19:10:40;;;;;;;10.23;4.40;;;;;;;;;;4308177;80;28549;-77
2022/05/14 19:16:45;;;;;;;11.55;4.37;;;;;;;;;;4301334;80;28615;-78
2022/05/14 19:22:45;;;;;;;10.35;4.70;;;;;;;;;;4330796;80;28476;-75
2022/05/14 19:28:46;;;;;;;10.85;4.80;;;;;;;;;;4318397;80;28553;-77
2022/05/14 19:34:47;;;;;;;9.20;5.47;;;;;;;;;;4311570;80;28501;-78
2022/05/14 19:40:53;;;;;;;9.28;5.03;;;;;;;;;;4348070;80;28513;-76
2022/05/14 19:46:54;;;;;;;10.30;5.87;;;;;;;;;;4317446;80;37760;-76
2022/05/14 19:52:55;;;;;;;9.73;5.65;;;;;;;;;;4309080;80;28626;-78
2022/05/14 19:59:01;;;;;;;9.00;5.55;;;;;;;;;;4289364;80;28560;-76
2022/05/14 20:05:03;;;;;;;12.43;6.75;;;;;;;;;;4344782;80;28495;-76
2022/05/14 20:11:04;;;;;;;11.80;6.70;;;;;;;;;;4353283;79;28555;-76
2022/05/14 20:23:26;;;;;;;8.55;6.15;;;;;;;;;;4341699;80;28579;-77
2022/05/14 20:29:27;;;;;;;11.70;5.95;;;;;;;;;;4331857;80;28490;-77
2022/05/14 20:35:28;;;;;;;9.68;5.92;;;;;;;;;;4314543;80;28566;-80
2022/05/14 20:41:29;;;;;;;12.33;5.72;;;;;;;;;;4321872;80;28522;-78
2022/05/14 20:47:36;;;;;;;10.10;6.42;;;;;;;;;;4341629;80;28584;-79
2022/05/14 20:53:33;;;;;;;11.75;6.00;;;;;;;;;;4313298;79;28494;-80
2022/05/14 20:59:35;;;;;;;8.98;6.25;;;;;;;;;;4324087;79;28533;-83
2022/05/14 21:05:36;;;;;;;11.80;6.65;;;;;;;;;;4326452;80;28516;-79
2022/05/14 21:11:36;;;;;;;16.57;7.17;;;;;;;;;;4372252;79;28541;-83
2022/05/14 21:17:37;;;;;;;13.25;7.03;;;;;;;;;;4343284;80;28573;-82
2022/05/14 21:23:39;;;;;;;11.63;6.87;;;;;;;;;;4321810;79;28491;-82
2022/05/14 21:29:40;;;;;;;18.67;7.62;;;;;;;;;;4337094;80;28482;-82
2022/05/14 21:42:00;;;;;;;13.08;7.35;;;;;;;;;;4338296;79;28469;-81
2022/05/14 21:48:02;;;;;;;11.22;7.53;;;;;;;;;;4336344;79;28585;-82
2022/05/14 21:54:03;;;;;;;12.82;7.20;;;;;;;;;;4328002;79;28540;-82
2022/05/14 22:00:06;;;;;;;13.80;7.72;;;;;;;;;;4330882;80;28489;-82
2022/05/14 22:06:08;;;;;;;12.68;7.95;;;;;;;;;;4350582;80;28442;-83
2022/05/14 22:12:12;;;;;;;11.60;7.40;;;;;;;;;;4352090;80;28545;-82
2022/05/14 22:18:14;;;;;;;11.83;7.65;;;;;;;;;;4312161;80;28492;-82
2022/05/14 22:24:15;;;;;;;12.33;7.55;;;;;;;;;;4334651;80;28463;-82
2022/05/14 22:30:17;;;;;;;14.85;9.48;;;;;;;;;;4326902;80;28562;-82
2022/05/14 22:36:18;;;;;;;11.75;8.28;;;;;;;;;;4318875;80;28526;-81
2022/05/14 22:42:18;;;;;;;12.55;7.50;;;;;;;;;;4315230;80;28508;-81
2022/05/14 22:48:19;;;;;;;8.78;7.08;;;;;;;;;;4334117;80;28462;-81
2022/05/14 22:54:20;;;;;;;12.95;7.95;;;;;;;;;;4315865;80;28490;-81
2022/05/14 23:00:21;;;;;;;13.62;8.45;;;;;;;;;;4332109;80;28541;-81
2022/05/14 23:06:22;;;;;;;14.75;8.90;;;;;;;;;;4331432;80;28531;-81
2022/05/14 23:12:23;;;;;;;14.18;8.90;;;;;;;;;;4320425;81;28547;-82
2022/05/14 23:18:33;;;;;;;14.58;8.80;;;;;;;;;;4298135;80;28564;-81
2022/05/14 23:24:34;;;;;;;14.55;10.20;;;;;;;;;;4318142;80;28567;-82
2022/05/14 23:30:36;;;;;;;17.50;9.55;;;;;;;;;;4312560;80;28533;-82
2022/05/14 23:36:37;;;;;;;19.35;12.50;;;;;;;;;;4283302;80;28529;-81
2022/05/14 23:42:38;;;;;;;13.65;8.10;;;;;;;;;;4321692;80;28493;-82
2022/05/14 23:48:39;;;;;;;23.73;14.60;;;;;;;;;;4306411;80;28536;-82
2022/05/14 23:54:39;;;;;;;17.48;10.20;;;;;;;;;;4294537;80;28584;-81
